createdAt,value
2019-02-04T00:00:33.981Z,59.38
2019-02-04T00:02:38.515Z,59.42
2019-02-04T00:04:43.595Z,59.43
2019-02-04T00:06:49.829Z,59.44
2019-02-04T00:08:53.962Z,59.48
2019-02-04T00:10:59.500Z,59.51
2019-02-04T00:13:03.861Z,59.51
2019-02-04T00:15:09.746Z,59.50
2019-02-04T00:17:14.022Z,59.53
2019-02-04T00:19:18.010Z,59.52
2019-02-04T00:21:22.127Z,59.52
2019-02-04T00:23:27.005Z,59.47
2019-02-04T00:25:31.161Z,59.52
2019-02-04T00:27:35.291Z,59.55
2019-02-04T00:29:39.298Z,59.58
2019-02-04T00:31:43.370Z,59.59
2019-02-04T00:33:52.949Z,59.59
2019-02-04T00:35:56.583Z,59.67
2019-02-04T00:38:00.599Z,59.72
2019-02-04T00:40:06.546Z,59.77
2019-02-04T00:42:10.520Z,59.78
2019-02-04T00:44:14.442Z,59.81
2019-02-04T00:46:18.495Z,59.83
2019-02-04T00:48:22.510Z,59.89
2019-02-04T00:50:27.718Z,60.01
2019-02-04T00:52:31.735Z,60.09
2019-02-04T00:54:35.584Z,60.15
2019-02-04T00:56:39.482Z,60.25
2019-02-04T00:58:43.523Z,60.29
2019-02-04T01:00:47.401Z,60.30
2019-02-04T01:02:52.323Z,60.30
2019-02-04T01:04:56.360Z,60.34
2019-02-04T01:07:00.377Z,60.40
2019-02-04T01:09:07.266Z,60.48
2019-02-04T01:11:11.243Z,60.48
2019-02-04T01:13:15.152Z,60.47
2019-02-04T01:15:19.051Z,60.54
2019-02-04T01:17:22.992Z,60.61
2019-02-04T01:19:26.920Z,60.73
2019-02-04T01:21:30.879Z,60.83
2019-02-04T01:23:35.183Z,61.06
2019-02-04T01:25:39.204Z,61.11
2019-02-04T01:27:43.168Z,61.16
2019-02-04T01:29:47.448Z,61.16
2019-02-04T01:31:52.541Z,61.19
2019-02-04T01:33:56.669Z,61.23
2019-02-04T01:36:00.605Z,61.26
2019-02-04T01:38:04.677Z,61.24
2019-02-04T01:40:12.500Z,61.21
2019-02-04T01:42:16.427Z,61.18
2019-02-04T01:44:20.367Z,61.15
2019-02-04T01:46:24.308Z,61.17
2019-02-04T01:48:28.412Z,61.22
2019-02-04T01:50:32.374Z,61.21
2019-02-04T01:52:36.398Z,61.22
2019-02-04T01:54:40.435Z,61.15
2019-02-04T01:56:44.272Z,61.13
2019-02-04T01:58:48.430Z,61.18
2019-02-04T02:00:52.461Z,61.22
2019-02-04T02:02:56.311Z,61.22
2019-02-04T02:05:00.320Z,61.32
2019-02-04T02:07:04.567Z,61.38
2019-02-04T02:09:16.670Z,61.38
2019-02-04T02:11:21.090Z,61.34
2019-02-04T02:13:25.148Z,61.45
2019-02-04T02:15:28.853Z,61.41
2019-02-04T02:17:32.884Z,61.32
2019-02-04T02:19:37.218Z,61.21
2019-02-04T02:21:41.239Z,61.16
2019-02-04T02:23:45.346Z,61.10
2019-02-04T02:25:49.128Z,61.04
2019-02-04T02:27:53.274Z,61.05
2019-02-04T02:29:57.452Z,61.04
2019-02-04T02:32:01.259Z,61.00
2019-02-04T02:34:05.171Z,60.99
2019-02-04T02:36:09.133Z,61.06
2019-02-04T02:38:13.110Z,61.08
2019-02-04T02:40:29.143Z,61.10
2019-02-04T02:42:34.430Z,61.14
2019-02-04T02:44:38.302Z,61.11
2019-02-04T02:46:42.267Z,61.15
2019-02-04T02:48:46.226Z,61.25
2019-02-04T02:50:50.123Z,61.39
2019-02-04T02:52:54.366Z,61.50
2019-02-04T02:54:58.236Z,61.62
2019-02-04T02:57:02.269Z,61.68
2019-02-04T02:59:06.309Z,61.80
2019-02-04T03:01:10.367Z,61.93
2019-02-04T03:03:14.457Z,62.03
2019-02-04T03:05:18.451Z,62.18
2019-02-04T03:07:22.844Z,62.37
2019-02-04T03:09:26.828Z,62.46
2019-02-04T03:11:30.814Z,62.59
2019-02-04T03:13:34.775Z,62.74
2019-02-04T03:15:38.754Z,62.74
2019-02-04T03:17:51.478Z,62.76
2019-02-04T03:19:48.397Z,62.77
2019-02-04T03:21:52.362Z,62.80
2019-02-04T03:23:56.368Z,62.80
2019-02-04T03:26:00.442Z,62.77
2019-02-04T03:28:04.480Z,62.80
2019-02-04T03:30:15.213Z,62.89
2019-02-04T03:32:19.261Z,62.95
2019-02-04T03:34:23.225Z,63.00
2019-02-04T03:36:27.388Z,63.18
2019-02-04T03:38:31.374Z,63.28
2019-02-04T03:40:35.372Z,63.35
2019-02-04T03:42:39.330Z,63.53
2019-02-04T03:44:46.354Z,63.55
2019-02-04T03:46:50.354Z,63.55
2019-02-04T03:48:54.298Z,63.64
2019-02-04T03:50:58.131Z,63.81
2019-02-04T03:53:01.955Z,63.83
2019-02-04T03:55:06.982Z,63.83
2019-02-04T03:57:11.081Z,63.85
2019-02-04T03:59:15.346Z,63.84
2019-02-04T04:01:19.359Z,63.95
2019-02-04T04:03:23.313Z,63.95
2019-02-04T04:05:27.331Z,64.01
2019-02-04T04:07:31.466Z,64.03
2019-02-04T04:09:36.650Z,64.06
2019-02-04T04:11:40.531Z,64.03
2019-02-04T04:13:44.499Z,64.01
2019-02-04T04:15:48.396Z,64.04
2019-02-04T04:17:52.323Z,64.13
2019-02-04T04:19:56.374Z,64.13
2019-02-04T04:22:00.286Z,64.16
2019-02-04T04:24:04.391Z,64.19
2019-02-04T04:26:08.365Z,64.44
2019-02-04T04:28:12.321Z,64.75
2019-02-04T04:30:18.653Z,64.86
2019-02-04T04:32:22.674Z,64.90
2019-02-04T04:34:27.433Z,64.98
2019-02-04T04:36:31.308Z,65.25
2019-02-04T04:38:35.266Z,65.40
2019-02-04T04:40:39.445Z,65.45
2019-02-04T04:42:43.563Z,65.60
2019-02-04T04:44:47.607Z,65.58
2019-02-04T04:46:51.560Z,65.50
2019-02-04T04:48:56.690Z,65.39
2019-02-04T04:51:00.734Z,65.25
2019-02-04T04:53:04.658Z,65.15
2019-02-04T04:55:10.709Z,65.08
2019-02-04T04:57:19.608Z,65.06
2019-02-04T04:59:23.553Z,65.07
2019-02-04T05:01:27.486Z,65.36
2019-02-04T05:03:31.439Z,65.70
2019-02-04T05:05:35.420Z,65.82
2019-02-04T05:07:39.345Z,65.72
2019-02-04T05:09:44.403Z,65.65
2019-02-04T05:11:48.379Z,65.62
2019-02-04T05:13:54.563Z,65.46
2019-02-04T05:15:59.548Z,66.07
2019-02-04T05:18:03.488Z,66.17
2019-02-04T05:20:08.483Z,66.45
2019-02-04T05:22:12.527Z,66.73
2019-02-04T05:24:19.517Z,66.98
2019-02-04T05:26:24.674Z,67.60
2019-02-04T05:28:28.658Z,68.02
2019-02-04T05:30:32.639Z,68.07
2019-02-04T05:32:36.598Z,68.39
2019-02-04T05:34:41.575Z,68.49
2019-02-04T05:36:45.482Z,69.42
2019-02-04T05:38:49.544Z,69.79
2019-02-04T05:40:53.568Z,69.75
2019-02-04T05:42:58.047Z,69.66
2019-02-04T05:45:01.940Z,69.45
2019-02-04T05:47:05.870Z,69.35
2019-02-04T05:49:11.868Z,69.69
2019-02-04T05:51:15.858Z,70.13
2019-02-04T05:53:19.983Z,70.60
2019-02-04T05:55:23.992Z,70.47
2019-02-04T05:57:27.854Z,70.39
2019-02-04T05:59:32.095Z,70.22
2019-02-04T06:01:36.278Z,70.05
2019-02-04T06:03:40.271Z,69.74
2019-02-04T06:05:44.275Z,70.11
2019-02-04T06:07:49.281Z,70.40
2019-02-04T06:09:53.817Z,70.37
2019-02-04T06:11:57.805Z,70.60
2019-02-04T06:14:01.716Z,70.76
2019-02-04T06:16:07.311Z,70.36
2019-02-04T06:18:11.222Z,70.29
2019-02-04T06:20:19.351Z,70.38
2019-02-04T06:22:23.332Z,70.37
2019-02-04T06:24:27.204Z,70.64
2019-02-04T06:26:31.297Z,70.82
2019-02-04T06:28:35.396Z,70.98
2019-02-04T06:30:39.872Z,70.96
2019-02-04T06:32:45.910Z,71.11
2019-02-04T06:34:50.759Z,70.99
2019-02-04T06:36:55.724Z,70.81
2019-02-04T06:38:59.738Z,70.52
2019-02-04T06:41:03.789Z,70.36
2019-02-04T06:43:08.970Z,70.29
2019-02-04T06:45:13.435Z,70.15
2019-02-04T06:47:17.293Z,70.07
2019-02-04T06:49:21.205Z,70.06
2019-02-04T06:51:25.120Z,69.96
2019-02-04T06:53:29.062Z,69.77
2019-02-04T06:55:34.936Z,69.60
2019-02-04T06:57:39.035Z,69.47
2019-02-04T06:59:42.892Z,69.47
2019-02-04T07:01:46.925Z,69.41
2019-02-04T07:03:50.939Z,69.30
2019-02-04T07:05:55.031Z,69.39
2019-02-04T07:07:59.009Z,69.45
2019-02-04T07:10:06.278Z,69.60
2019-02-04T07:12:10.277Z,69.56
2019-02-04T07:14:14.433Z,69.49
2019-02-04T07:16:19.843Z,69.39
2019-02-04T07:18:23.739Z,69.14
2019-02-04T07:20:29.764Z,69.26
2019-02-04T07:22:33.774Z,69.33
2019-02-04T07:24:43.008Z,69.19
2019-02-04T07:26:44.504Z,69.25
2019-02-04T07:28:48.406Z,69.36
2019-02-04T07:30:52.313Z,69.49
2019-02-04T07:32:57.272Z,69.62
2019-02-04T07:35:01.345Z,69.64
2019-02-04T07:37:05.767Z,69.75
2019-02-04T07:39:10.809Z,69.72
2019-02-04T07:41:15.792Z,69.50
2019-02-04T07:43:20.002Z,69.00
2019-02-04T07:45:24.120Z,68.64
2019-02-04T07:47:28.460Z,68.29
2019-02-04T07:49:35.145Z,67.84
2019-02-04T07:51:38.397Z,67.51
2019-02-04T07:53:42.596Z,67.27
2019-02-04T07:55:47.801Z,67.04
2019-02-04T07:57:51.934Z,66.76
2019-02-04T07:59:55.776Z,66.52
2019-02-04T08:01:59.842Z,66.33
2019-02-04T08:04:03.864Z,66.22
2019-02-04T08:06:07.878Z,66.42
2019-02-04T08:08:11.772Z,66.44
2019-02-04T08:10:15.844Z,66.38
2019-02-04T08:12:19.783Z,66.25
2019-02-04T08:14:23.794Z,66.13
2019-02-04T08:16:27.804Z,65.89
2019-02-04T08:18:31.853Z,65.39
2019-02-04T08:20:35.921Z,64.01
2019-02-04T08:22:40.029Z,62.42
2019-02-04T08:24:44.772Z,60.88
2019-02-04T08:26:48.897Z,59.90
2019-02-04T08:28:53.322Z,58.56
2019-02-04T08:30:57.603Z,57.90
2019-02-04T08:33:01.635Z,57.75
2019-02-04T08:35:06.000Z,57.35
2019-02-04T08:37:09.969Z,56.68
2019-02-04T08:39:14.003Z,55.52
2019-02-04T08:41:18.183Z,53.85
2019-02-04T08:43:22.186Z,53.17
2019-02-04T08:45:26.257Z,52.31
2019-02-04T08:47:30.684Z,51.39
2019-02-04T08:49:34.732Z,51.24
2019-02-04T08:51:38.834Z,50.95
2019-02-04T08:53:42.981Z,50.96
2019-02-04T08:55:46.844Z,49.75
2019-02-04T08:57:52.809Z,49.30
2019-02-04T08:59:56.893Z,48.19
2019-02-04T09:02:02.177Z,48.78
2019-02-04T09:04:07.177Z,49.23
2019-02-04T09:06:11.157Z,48.80
2019-02-04T09:08:15.242Z,48.87
2019-02-04T09:10:25.114Z,48.69
2019-02-04T09:12:31.322Z,48.88
2019-02-04T09:14:35.865Z,48.87
2019-02-04T09:16:39.739Z,47.95
2019-02-04T09:18:45.191Z,48.60
2019-02-04T09:23:00.512Z,47.14
2019-02-04T09:25:04.521Z,45.61
2019-02-04T09:27:08.488Z,45.03
2019-02-04T09:29:12.440Z,44.67
2019-02-04T09:31:18.323Z,45.05
2019-02-04T09:33:22.468Z,46.25
2019-02-04T09:35:26.734Z,46.18
2019-02-04T09:37:30.946Z,46.94
2019-02-04T09:39:34.968Z,47.12
2019-02-04T09:41:38.921Z,47.88
2019-02-04T09:43:43.153Z,48.90
2019-02-04T09:45:48.312Z,49.11
2019-02-04T09:47:52.382Z,49.37
2019-02-04T09:49:56.425Z,48.91
2019-02-04T09:52:00.563Z,49.20
2019-02-04T09:54:04.626Z,48.87
2019-02-04T09:56:08.820Z,48.80
2019-02-04T09:58:12.824Z,48.74
2019-02-04T10:00:19.991Z,48.83
2019-02-04T10:02:23.963Z,48.87
2019-02-04T10:04:27.994Z,49.12
2019-02-04T10:06:32.514Z,49.27
2019-02-04T10:08:36.420Z,49.47
2019-02-04T10:10:40.439Z,49.49
2019-02-04T10:12:44.505Z,49.39
2019-02-04T10:14:48.544Z,49.41
2019-02-04T10:16:52.804Z,49.56
2019-02-04T10:18:56.876Z,49.55
2019-02-04T10:21:00.785Z,49.66
2019-02-04T10:23:05.012Z,49.60
2019-02-04T10:25:12.952Z,49.50
2019-02-04T10:27:16.949Z,49.26
2019-02-04T10:29:22.149Z,49.11
2019-02-04T10:31:26.199Z,48.80
2019-02-04T10:33:32.197Z,48.29
2019-02-04T10:35:36.247Z,47.64
2019-02-04T10:37:40.223Z,46.49
2019-02-04T10:39:45.195Z,46.05
2019-02-04T10:41:49.723Z,45.80
2019-02-04T10:43:53.712Z,45.62
2019-02-04T10:45:57.787Z,44.35
2019-02-04T10:48:01.730Z,43.80
2019-02-04T10:50:07.772Z,43.20
2019-02-04T10:52:11.813Z,42.24
2019-02-04T10:54:15.869Z,41.33
2019-02-04T10:56:19.909Z,39.99
2019-02-04T10:58:23.917Z,38.66
2019-02-04T11:00:31.048Z,37.26
2019-02-04T11:02:36.095Z,36.89
2019-02-04T11:04:40.249Z,36.73
2019-02-04T11:06:44.190Z,36.99
2019-02-04T11:08:48.126Z,38.44
2019-02-04T11:10:52.086Z,38.73
2019-02-04T11:12:56.172Z,38.45
2019-02-04T11:15:00.283Z,38.76
2019-02-04T11:17:05.337Z,37.59
2019-02-04T11:19:09.358Z,37.38
2019-02-04T11:21:13.444Z,36.71
2019-02-04T11:23:17.703Z,36.97
2019-02-04T11:25:22.873Z,37.15
2019-02-04T11:27:26.986Z,36.60
2019-02-04T11:29:31.057Z,36.81
2019-02-04T11:31:35.416Z,37.29
2019-02-04T11:33:39.470Z,36.56
2019-02-04T11:35:43.497Z,35.88
2019-02-04T11:37:47.700Z,35.74
2019-02-04T11:39:51.695Z,35.94
2019-02-04T11:41:57.614Z,35.27
2019-02-04T11:44:01.543Z,34.01
2019-02-04T11:46:05.560Z,33.43
2019-02-04T11:48:10.536Z,34.38
2019-02-04T11:50:14.579Z,34.80
2019-02-04T11:52:18.622Z,33.62
2019-02-04T11:54:23.570Z,32.01
2019-02-04T11:56:27.451Z,31.15
2019-02-04T11:58:31.539Z,30.85
2019-02-04T12:00:35.478Z,31.86
2019-02-04T12:02:39.518Z,30.52
2019-02-04T12:04:43.553Z,31.30
2019-02-04T12:06:47.628Z,32.25
2019-02-04T12:08:51.512Z,32.44
2019-02-04T12:10:59.453Z,30.39
2019-02-04T12:13:03.367Z,28.28
2019-02-04T12:15:10.788Z,27.85
2019-02-04T12:17:15.175Z,27.26
2019-02-04T12:19:19.206Z,27.82
2019-02-04T12:21:23.202Z,27.70
2019-02-04T12:23:27.068Z,27.87
2019-02-04T12:25:31.114Z,28.49
2019-02-04T12:27:36.005Z,29.28
2019-02-04T12:29:40.006Z,29.17
2019-02-04T12:31:43.882Z,28.29
2019-02-04T12:33:48.105Z,27.59
2019-02-04T12:35:52.086Z,26.81
2019-02-04T12:37:56.301Z,27.41
2019-02-04T12:40:00.349Z,27.55
2019-02-04T12:42:04.377Z,26.76
2019-02-04T12:44:08.415Z,25.50
2019-02-04T12:46:12.531Z,24.47
2019-02-04T12:48:16.503Z,24.93
2019-02-04T12:50:20.421Z,26.24
2019-02-04T12:52:24.607Z,26.90
2019-02-04T12:54:28.414Z,27.52
2019-02-04T12:56:32.385Z,28.17
2019-02-04T12:58:36.513Z,28.98
2019-02-04T13:00:40.545Z,29.22
2019-02-04T13:02:45.581Z,29.95
2019-02-04T13:04:49.574Z,30.56
2019-02-04T13:06:53.577Z,30.89
2019-02-04T13:08:57.746Z,31.72
2019-02-04T13:11:01.696Z,32.42
2019-02-04T13:13:09.526Z,32.50
2019-02-04T13:15:15.905Z,33.12
2019-02-04T13:17:19.881Z,33.88
2019-02-04T13:19:23.877Z,34.56
2019-02-04T13:21:28.130Z,35.17
2019-02-04T13:23:32.240Z,35.48
2019-02-04T13:25:36.205Z,36.20
2019-02-04T13:27:42.071Z,36.37
2019-02-04T13:29:46.213Z,36.64
2019-02-04T13:31:50.109Z,36.90
2019-02-04T13:33:56.032Z,37.04
2019-02-04T13:35:59.871Z,37.25
2019-02-04T13:38:04.208Z,37.43
2019-02-04T13:40:10.633Z,37.91
2019-02-04T13:42:14.720Z,37.93
2019-02-04T13:44:19.084Z,38.45
2019-02-04T13:46:23.076Z,38.67
2019-02-04T13:48:26.845Z,39.04
2019-02-04T13:50:31.108Z,38.94
2019-02-04T13:52:35.142Z,38.92
2019-02-04T13:54:39.515Z,39.09
2019-02-04T13:56:43.446Z,39.35
2019-02-04T13:58:47.394Z,39.25
2019-02-04T14:00:51.354Z,39.28
2019-02-04T14:02:59.266Z,39.37
2019-02-04T14:05:02.724Z,39.49
2019-02-04T14:07:08.350Z,39.14
2019-02-04T14:09:18.362Z,38.72
2019-02-04T14:11:22.446Z,38.94
2019-02-04T14:13:26.467Z,39.30
2019-02-04T14:15:35.461Z,39.58
2019-02-04T14:17:38.313Z,39.70
2019-02-04T14:19:42.410Z,39.73
2019-02-04T14:21:46.430Z,39.50
2019-02-04T14:23:52.513Z,39.77
2019-02-04T14:25:59.446Z,39.99
2019-02-04T14:28:04.683Z,39.17
2019-02-04T14:30:13.262Z,39.23
2019-02-04T14:32:17.197Z,39.48
2019-02-04T14:34:21.134Z,39.65
2019-02-04T14:36:25.020Z,40.64
2019-02-04T14:38:28.907Z,40.93
2019-02-04T14:40:34.810Z,40.96
2019-02-04T14:42:38.814Z,41.26
2019-02-04T14:44:58.777Z,41.31
2019-02-04T14:47:27.284Z,41.35
2019-02-04T14:50:24.795Z,41.60
2019-02-04T14:53:10.233Z,41.84
2019-02-04T14:55:32.377Z,41.95
2019-02-04T14:57:54.442Z,42.20
2019-02-04T15:00:13.245Z,42.19
2019-02-04T15:02:54.073Z,41.96
2019-02-04T15:05:26.761Z,42.20
2019-02-04T15:08:07.046Z,42.01
2019-02-04T15:10:31.954Z,42.27
2019-02-04T15:13:15.175Z,42.63
2019-02-04T15:15:34.709Z,42.89
2019-02-04T15:18:18.936Z,43.08
2019-02-04T15:20:54.094Z,43.31
2019-02-04T15:23:29.470Z,43.42
2019-02-04T15:26:04.571Z,43.46
2019-02-04T15:28:59.160Z,43.64
2019-02-04T15:31:42.429Z,43.82
2019-02-04T15:34:01.859Z,44.14
2019-02-04T15:36:42.690Z,44.22
2019-02-04T15:39:08.434Z,44.41
2019-02-04T15:41:52.111Z,44.60
2019-02-04T15:44:08.104Z,44.75
2019-02-04T15:46:47.061Z,45.02
2019-02-04T15:49:50.829Z,45.05
2019-02-04T15:51:58.910Z,45.44
2019-02-04T15:54:05.685Z,46.10
2019-02-04T15:56:10.384Z,46.44
2019-02-04T15:58:14.439Z,46.88
2019-02-04T16:00:21.559Z,47.09
2019-02-04T16:02:25.708Z,47.43
2019-02-04T16:04:31.736Z,47.53
2019-02-04T16:06:35.893Z,47.85
2019-02-04T16:08:42.787Z,47.90
2019-02-04T16:10:46.871Z,47.99
2019-02-04T16:12:51.151Z,48.13
2019-02-04T16:14:56.245Z,48.26
2019-02-04T16:17:00.506Z,48.33
2019-02-04T16:19:04.767Z,48.46
2019-02-04T16:21:09.909Z,48.56
2019-02-04T16:23:15.332Z,48.57
2019-02-04T16:25:19.381Z,48.55
2019-02-04T16:27:23.368Z,48.56
2019-02-04T16:29:28.480Z,48.74
2019-02-04T16:31:32.630Z,48.91
2019-02-04T16:33:37.392Z,49.10
2019-02-04T16:35:41.955Z,49.17
2019-02-04T16:37:46.660Z,49.52
2019-02-04T16:39:50.841Z,50.00
2019-02-04T16:41:55.206Z,50.10
2019-02-04T16:44:01.797Z,50.44
2019-02-04T16:46:08.922Z,50.69
2019-02-04T16:48:13.275Z,51.25
2019-02-04T16:50:22.949Z,51.28
2019-02-04T16:52:26.903Z,51.46
2019-02-04T16:54:31.224Z,51.72
2019-02-04T16:56:35.675Z,51.85
2019-02-04T16:58:39.888Z,51.92
2019-02-04T17:00:44.188Z,52.48
2019-02-04T17:02:49.912Z,52.52
2019-02-04T17:04:54.231Z,52.72
2019-02-04T17:06:58.594Z,53.01
2019-02-04T17:09:05.709Z,53.31
2019-02-04T17:11:09.866Z,53.56
2019-02-04T17:13:14.339Z,53.69
2019-02-04T17:15:18.676Z,53.81
2019-02-04T17:17:23.084Z,54.04
2019-02-04T17:19:27.524Z,54.10
2019-02-04T17:21:32.249Z,54.63
2019-02-04T17:23:36.393Z,54.55
2019-02-04T17:25:42.841Z,54.76
2019-02-04T17:27:47.184Z,54.98
2019-02-04T17:29:51.692Z,55.08
2019-02-04T17:31:55.912Z,55.34
2019-02-04T17:34:00.624Z,55.62
2019-02-04T17:36:05.042Z,55.90
2019-02-04T17:38:09.350Z,56.01
2019-02-04T17:40:19.147Z,56.15
2019-02-04T17:42:24.004Z,56.30
2019-02-04T17:44:28.438Z,56.41
2019-02-04T17:46:32.543Z,56.67
2019-02-04T17:48:36.926Z,56.79
2019-02-04T17:50:41.215Z,57.02
2019-02-04T17:52:45.448Z,57.17
2019-02-04T17:54:49.880Z,57.51
2019-02-04T17:56:54.041Z,57.49
2019-02-04T17:58:59.274Z,57.66
2019-02-04T18:01:03.990Z,57.93
2019-02-04T18:03:08.308Z,58.11
2019-02-04T18:05:13.358Z,58.04
2019-02-04T18:07:20.641Z,58.58
2019-02-04T18:09:23.280Z,58.40
2019-02-04T18:11:27.406Z,59.14
2019-02-04T18:13:31.833Z,59.12
2019-02-04T18:15:36.311Z,59.17
2019-02-04T18:17:40.533Z,59.29
2019-02-04T18:19:44.625Z,59.41
2019-02-04T18:21:48.866Z,59.49
2019-02-04T18:23:53.297Z,59.77
2019-02-04T18:25:57.331Z,59.97
2019-02-04T18:28:01.419Z,59.96
2019-02-04T18:30:08.936Z,60.10
2019-02-04T18:32:12.869Z,60.27
2019-02-04T18:34:16.933Z,60.49
2019-02-04T18:36:21.036Z,60.52
2019-02-04T18:38:26.796Z,60.58
2019-02-04T18:40:31.306Z,60.99
2019-02-04T18:42:35.439Z,61.11
2019-02-04T18:44:39.978Z,61.21
2019-02-04T18:46:45.291Z,61.23
2019-02-04T18:48:50.494Z,61.50
2019-02-04T18:50:55.209Z,61.67
2019-02-04T18:52:59.552Z,61.73
2019-02-04T18:55:03.811Z,62.26
2019-02-04T18:57:07.950Z,62.30
2019-02-04T18:59:12.364Z,62.27
2019-02-04T19:01:17.224Z,62.70
2019-02-04T19:03:21.932Z,62.75
2019-02-04T19:05:26.957Z,62.92
2019-02-04T19:07:31.139Z,63.40
2019-02-04T19:09:35.573Z,63.28
2019-02-04T19:11:39.894Z,63.41
2019-02-04T19:13:44.859Z,63.65
2019-02-04T19:15:50.322Z,64.48
2019-02-04T19:17:57.077Z,64.07
2019-02-04T19:20:01.799Z,64.38
2019-02-04T19:22:06.229Z,64.04
2019-02-04T19:24:10.835Z,64.00
2019-02-04T19:26:15.256Z,64.15
2019-02-04T19:28:19.481Z,64.45
2019-02-04T19:30:39.034Z,64.24
2019-02-04T19:32:46.209Z,64.39
2019-02-04T19:34:51.228Z,64.50
2019-02-04T19:36:55.381Z,64.35
2019-02-04T19:38:59.466Z,64.43
2019-02-04T19:41:03.590Z,64.62
2019-02-04T19:43:07.729Z,64.83
2019-02-04T19:45:15.137Z,64.89
2019-02-04T19:47:19.529Z,64.94
2019-02-04T19:49:27.707Z,64.98
2019-02-04T19:51:31.117Z,65.29
2019-02-04T19:53:35.686Z,65.37
2019-02-04T19:55:40.219Z,65.46
2019-02-04T19:57:55.126Z,65.56
2019-02-04T19:59:59.996Z,65.51
2019-02-04T20:02:05.961Z,65.78
2019-02-04T20:04:10.590Z,65.87
2019-02-04T20:06:17.663Z,65.99
2019-02-04T20:08:23.544Z,66.05
2019-02-04T20:10:34.153Z,66.07
2019-02-04T20:12:41.896Z,66.00
2019-02-04T20:14:47.018Z,66.04
2019-02-04T20:16:51.923Z,66.24
2019-02-04T20:18:56.723Z,65.90
2019-02-04T20:21:01.825Z,66.20
2019-02-04T20:23:07.256Z,66.15
2019-02-04T20:25:15.460Z,66.12
2019-02-04T20:27:20.283Z,66.24
2019-02-04T20:29:25.395Z,66.07
2019-02-04T20:31:29.788Z,66.11
2019-02-04T20:33:34.092Z,66.07
2019-02-04T20:35:39.852Z,66.56
2019-02-04T20:37:44.525Z,66.82
2019-02-04T20:39:49.018Z,66.53
2019-02-04T20:41:55.015Z,66.44
2019-02-04T20:44:01.391Z,66.45
2019-02-04T20:46:07.160Z,66.61
2019-02-04T20:48:13.848Z,66.54
2019-02-04T20:50:21.307Z,66.59
2019-02-04T20:52:26.344Z,66.90
2019-02-04T20:54:31.450Z,66.92
2019-02-04T20:56:35.562Z,67.16
2019-02-04T20:58:39.564Z,67.24
2019-02-04T21:00:44.795Z,67.52
2019-02-04T21:02:49.104Z,67.50
2019-02-04T21:04:53.304Z,67.42
2019-02-04T21:06:57.252Z,67.33
2019-02-04T21:09:01.790Z,67.44
2019-02-04T21:11:07.871Z,67.67
2019-02-04T21:13:15.581Z,67.77
2019-02-04T21:15:20.404Z,67.73
2019-02-04T21:17:25.635Z,67.68
2019-02-04T21:19:29.620Z,67.59
2019-02-04T21:21:33.922Z,67.36
2019-02-04T21:23:39.039Z,67.23
2019-02-04T21:25:45.221Z,67.05
2019-02-04T21:27:50.456Z,66.86
2019-02-04T21:29:54.474Z,66.69
2019-02-04T21:31:59.765Z,66.56
2019-02-04T21:34:03.674Z,66.55
2019-02-04T21:36:09.768Z,66.44
2019-02-04T21:38:13.266Z,66.33
2019-02-04T21:40:17.356Z,66.24
2019-02-04T21:42:21.755Z,66.25
2019-02-04T21:44:25.637Z,66.45
2019-02-04T21:46:29.738Z,66.72
2019-02-04T21:48:33.767Z,66.93
2019-02-04T21:50:37.647Z,67.06
2019-02-04T21:52:42.322Z,67.15
2019-02-04T21:54:46.268Z,67.06
2019-02-04T21:56:50.386Z,67.87
2019-02-04T21:58:54.539Z,67.73
2019-02-04T22:00:59.133Z,67.17
2019-02-04T22:03:03.467Z,66.86
2019-02-04T22:05:09.879Z,66.61
2019-02-04T22:07:13.872Z,66.45
2019-02-04T22:09:17.968Z,66.33
2019-02-04T22:11:23.086Z,66.22
2019-02-04T22:13:32.648Z,66.13
2019-02-04T22:15:36.848Z,66.27
2019-02-04T22:17:40.838Z,66.42
2019-02-04T22:19:45.225Z,66.96
2019-02-04T22:21:49.646Z,67.04
2019-02-04T22:23:53.676Z,66.95
2019-02-04T22:25:57.745Z,66.95
2019-02-04T22:28:01.784Z,66.95
2019-02-04T22:30:08.039Z,66.88
2019-02-04T22:32:12.380Z,67.09
2019-02-04T22:34:16.440Z,67.28
2019-02-04T22:36:20.907Z,67.41
2019-02-04T22:38:24.871Z,67.43
2019-02-04T22:40:30.113Z,67.39
2019-02-04T22:42:34.400Z,67.27
2019-02-04T22:44:38.407Z,67.46
2019-02-04T22:46:42.669Z,67.33
2019-02-04T22:48:48.329Z,67.31
2019-02-04T22:50:52.251Z,67.17
2019-02-04T22:52:56.598Z,67.00
2019-02-04T22:55:00.765Z,66.94
2019-02-04T22:57:05.024Z,66.89
2019-02-04T22:59:12.121Z,66.77
2019-02-04T23:01:54.238Z,66.85
2019-02-04T23:03:58.480Z,66.94
2019-02-04T23:06:02.596Z,66.87
2019-02-04T23:08:07.379Z,66.77
2019-02-04T23:10:13.743Z,66.79
2019-02-04T23:12:17.815Z,66.83
2019-02-04T23:14:23.917Z,67.05
2019-02-04T23:16:29.848Z,67.22
2019-02-04T23:18:34.005Z,67.42
2019-02-04T23:20:38.101Z,67.50
2019-02-04T23:22:44.150Z,67.64
2019-02-04T23:24:49.553Z,67.68
2019-02-04T23:26:54.100Z,67.53
2019-02-04T23:28:59.226Z,67.37
2019-02-04T23:31:03.241Z,67.25
2019-02-04T23:33:07.720Z,67.06
2019-02-04T23:35:11.804Z,66.90
2019-02-04T23:37:16.518Z,66.74
2019-02-04T23:39:20.748Z,66.73
2019-02-04T23:41:25.229Z,66.64
2019-02-04T23:43:29.361Z,66.64
2019-02-04T23:45:33.382Z,66.53
2019-02-04T23:47:38.646Z,66.36
2019-02-04T23:49:42.798Z,66.22
2019-02-04T23:51:47.411Z,66.04
2019-02-04T23:53:51.763Z,65.86
2019-02-04T23:55:57.753Z,65.79
2019-02-04T23:58:02.062Z,65.87
